Artvin — 9HA2782 — position and weather

sailwx.info

Track history (hours):
 
Tides and Currents Weather Stations Pressure Air Temp Water Temp Dewpoint Dewpoint Depression Visibility Wind Speed Wind Dir Waves Ship Positions

Artvin

Last reported at 2017-Apr-09 02:04 UTC. Time now 2017-May-25 10:22 UTC.
Position S 23°16' W 042°53'.
Warning: this ship's position is 46 days out of date.

Length 229 m; draft 13.9 m.

Type: Cargo ship. MMSI: 215678000.

Date/timePositionNaut miles runAvg speedWind from/ knotsBaromVisibWave heightAir tempDewpointWater temp
2017-Apr-09 02:04S 23°16' W 042°53'111.3
2017-Apr-09 01:59S 23°16' W 042°52'611.4
2017-Apr-09 01:30S 23°17' W 042°46'611.5
2017-Apr-09 01:00S 23°18' W 042°40'6411.5
2017-Apr-08 19:28S 23°25' W 041°31'811.7
2017-Apr-08 18:50S 23°25' W 041°23'411.8
2017-Apr-08 18:30S 23°25' W 041°19'812.3
2017-Apr-08 17:51S 23°25' W 041°10'412.9
2017-Apr-08 17:30S 23°25' W 041°05'713.1
2017-Apr-08 17:00S 23°25' W 040°58'812.6
2017-Apr-08 16:23S 23°25' W 040°50'512.3
2017-Apr-08 16:00S 23°25' W 040°45'612.2
2017-Apr-08 15:30S 23°26' W 040°38'  
Track history (hours):
 
Tides and Currents Weather Stations Pressure Air Temp Water Temp Dewpoint Dewpoint Depression Visibility Wind Speed Wind Dir Waves Ship Positions

Artvin

Last reported at 2017-Apr-09 02:04 UTC. Time now 2017-May-25 10:22 UTC.
Position S 23°16' W 042°53'.
Warning: this ship's position is 46 days out of date.

Length 229 m; draft 13.9 m.

Type: Cargo ship. MMSI: 215678000.

Date/timePositionNaut miles runAvg speedWind from/ knotsBaromVisibWave heightAir tempDewpointWater temp
2017-Apr-09 02:04S 23°16' W 042°53'111.3
2017-Apr-09 01:59S 23°16' W 042°52'611.4
2017-Apr-09 01:30S 23°17' W 042°46'611.5
2017-Apr-09 01:00S 23°18' W 042°40'6411.5
2017-Apr-08 19:28S 23°25' W 041°31'811.7
2017-Apr-08 18:50S 23°25' W 041°23'411.8
2017-Apr-08 18:30S 23°25' W 041°19'812.3
2017-Apr-08 17:51S 23°25' W 041°10'412.9
2017-Apr-08 17:30S 23°25' W 041°05'713.1
2017-Apr-08 17:00S 23°25' W 040°58'812.6
2017-Apr-08 16:23S 23°25' W 040°50'512.3
2017-Apr-08 16:00S 23°25' W 040°45'612.2
2017-Apr-08 15:30S 23°26' W 040°38'  

Dump ship's entire track history